Time;durP1;ratioP1;P1;durP2;ratioP2;P2;SDS_P1;SDS_P2;PMS_P1;PMS_P2;Temp;Humidity;BMP_temperature;BMP_pressure;BME280_temperature;BME280_humidity;BME280_pressure;Samples;Min_cycle;Max_cycle;Signal;HPM_P1;HPM_P2
2022/11/08 00:01:55;;;;;;;5.15;1.77;;;13.10;99.90;;;;;;5093751;28;20119;-83
2022/11/08 00:04:22;;;;;;;5.75;1.52;;;13.10;99.90;;;;;;5082693;28;20024;-83
2022/11/08 00:15:02;;;;;;;4.05;1.58;;;13.10;99.90;;;;;;5084910;28;20043;-84
2022/11/08 00:17:30;;;;;;;10.23;2.75;;;13.10;99.90;;;;;;5065427;28;20082;-83
2022/11/08 00:19:56;;;;;;;5.78;2.38;;;13.10;99.90;;;;;;5060425;28;20017;-83
2022/11/08 00:22:23;;;;;;;7.13;1.73;;;13.10;99.90;;;;;;5070270;28;20028;-83
2022/11/08 00:24:50;;;;;;;5.90;1.77;;;13.10;99.90;;;;;;5090587;28;20028;-83
2022/11/08 00:27:21;;;;;;;6.68;1.88;;;13.10;99.90;;;;;;5071390;28;20023;-83
2022/11/08 00:29:48;;;;;;;6.20;1.92;;;13.00;99.90;;;;;;5059970;28;20479;-84
2022/11/08 00:32:19;;;;;;;5.28;1.63;;;13.00;99.90;;;;;;5076235;28;20411;-82
2022/11/08 00:34:47;;;;;;;5.97;1.80;;;12.90;99.90;;;;;;5073921;28;20107;-82
2022/11/08 00:37:14;;;;;;;5.38;1.60;;;12.90;99.90;;;;;;5068740;28;20081;-83
2022/11/08 00:39:40;;;;;;;7.38;1.80;;;12.80;99.90;;;;;;5060362;28;20444;-82
2022/11/08 00:42:07;;;;;;;6.63;1.67;;;12.80;99.90;;;;;;5076237;28;20024;-82
2022/11/08 00:44:35;;;;;;;5.25;1.52;;;12.70;99.90;;;;;;5063993;28;20009;-82
2022/11/08 00:47:01;;;;;;;6.38;1.40;;;12.70;99.90;;;;;;5081307;28;20013;-82
2022/11/08 00:49:27;;;;;;;6.25;1.70;;;12.70;99.90;;;;;;5082292;28;20027;-82
2022/11/08 00:51:53;;;;;;;8.45;2.25;;;12.60;99.90;;;;;;5082281;28;20099;-82
2022/11/08 00:54:20;;;;;;;7.03;1.80;;;12.60;99.90;;;;;;5091689;28;20012;-82
2022/11/08 00:56:48;;;;;;;3.88;1.50;;;12.60;99.90;;;;;;5090182;28;20399;-82
2022/11/08 00:59:17;;;;;;;4.43;1.63;;;12.60;99.90;;;;;;5060906;28;20016;-82
2022/11/08 01:01:43;;;;;;;4.53;1.70;;;12.60;99.90;;;;;;5064294;28;20056;-82
2022/11/08 01:04:11;;;;;;;5.40;1.60;;;12.60;99.90;;;;;;5063594;28;20020;-82
2022/11/08 01:06:38;;;;;;;4.78;1.70;;;12.50;99.90;;;;;;5068518;28;20077;-82
2022/11/08 01:09:04;;;;;;;5.07;1.52;;;12.50;99.90;;;;;;5062231;28;20024;-82
2022/11/08 01:11:31;;;;;;;5.78;1.83;;;12.40;99.90;;;;;;5070608;28;20062;-83
2022/11/08 01:13:59;;;;;;;5.35;1.60;;;12.40;99.90;;;;;;5062532;28;20046;-82
2022/11/08 01:16:27;;;;;;;8.82;2.42;;;12.40;99.90;;;;;;5058236;28;20066;-83
2022/11/08 01:18:55;;;;;;;5.60;1.90;;;12.40;99.90;;;;;;5055362;28;20478;-81
2022/11/08 01:21:22;;;;;;;7.38;1.80;;;12.30;99.90;;;;;;5062382;28;20059;-82
2022/11/08 01:23:49;;;;;;;4.75;2.13;;;12.30;99.90;;;;;;5058915;28;20021;-82
2022/11/08 01:26:18;;;;;;;4.88;1.65;;;12.30;99.90;;;;;;5069089;28;20023;-83
2022/11/08 01:28:44;;;;;;;6.28;1.95;;;12.30;99.90;;;;;;5062183;28;20028;-82
2022/11/08 01:31:19;;;;;;;6.13;1.95;;;12.20;99.90;;;;;;5055270;28;20089;-82
2022/11/08 01:33:44;;;;;;;5.93;2.10;;;12.20;99.90;;;;;;5059977;28;20020;-82
2022/11/08 01:36:13;;;;;;;5.95;1.83;;;12.20;99.90;;;;;;5066135;28;20491;-83
2022/11/08 01:38:39;;;;;;;9.05;2.05;;;12.20;99.90;;;;;;5083007;28;20381;-81
2022/11/08 01:41:06;;;;;;;6.00;1.67;;;12.20;99.90;;;;;;5062441;28;20055;-83
2022/11/08 01:43:37;;;;;;;6.85;1.83;;;12.10;99.90;;;;;;5074434;28;20463;-81
2022/11/08 01:46:22;;;;;;;5.70;2.30;;;12.10;99.90;;;;;;5075150;28;20363;-82
2022/11/08 01:49:08;;;;;;;6.78;2.42;;;12.10;99.90;;;;;;5080795;28;20012;-82
2022/11/08 01:51:46;;;;;;;5.35;2.00;;;12.10;99.90;;;;;;5055137;28;20040;-81
2022/11/08 01:54:20;;;;;;;6.43;2.00;;;12.10;99.90;;;;;;5055788;28;20020;-81
2022/11/08 01:56:46;;;;;;;9.60;2.25;;;12.10;99.90;;;;;;5063148;28;20036;-81
2022/11/08 01:59:14;;;;;;;6.38;2.28;;;12.10;99.90;;;;;;5061734;28;20016;-82
2022/11/08 02:01:40;;;;;;;8.35;2.45;;;12.10;99.90;;;;;;5055946;28;20048;-81
2022/11/08 02:04:06;;;;;;;6.78;2.33;;;12.10;99.90;;;;;;5060325;28;20043;-83
2022/11/08 02:06:36;;;;;;;6.90;2.25;;;12.10;99.90;;;;;;5074911;28;20101;-83
2022/11/08 02:09:04;;;;;;;7.97;2.83;;;12.10;99.90;;;;;;5058276;28;20351;-81
2022/11/08 02:11:32;;;;;;;5.15;1.90;;;12.10;99.90;;;;;;5059475;28;20093;-82
2022/11/08 02:13:58;;;;;;;6.00;2.42;;;12.10;99.90;;;;;;5079013;28;20008;-82
2022/11/08 02:16:24;;;;;;;6.00;2.10;;;12.20;99.90;;;;;;5069144;28;20073;-82
2022/11/08 02:18:49;;;;;;;5.40;1.98;;;12.20;99.90;;;;;;5059056;28;20024;-82
2022/11/08 02:21:25;;;;;;;5.82;1.88;;;12.20;99.90;;;;;;5088866;28;20026;-83
2022/11/08 02:24:09;;;;;;;6.60;2.03;;;12.20;99.90;;;;;;5067491;28;20036;-81
2022/11/08 02:26:36;;;;;;;8.20;2.83;;;12.10;99.90;;;;;;5060758;28;20017;-81
2022/11/08 02:29:33;;;;;;;5.78;2.25;;;12.10;99.90;;;;;;5096223;28;20024;-82
2022/11/08 02:32:00;;;;;;;4.05;1.42;;;12.10;99.90;;;;;;5074185;28;20123;-81
2022/11/08 02:34:58;;;;;;;9.43;2.10;;;12.10;99.90;;;;;;5069115;28;20028;-81
2022/11/08 02:37:25;;;;;;;6.68;2.30;;;12.10;99.90;;;;;;5070992;28;20036;-81
2022/11/08 02:39:51;;;;;;;6.90;2.05;;;12.10;99.90;;;;;;5078375;28;20020;-82
2022/11/08 02:42:18;;;;;;;6.80;1.85;;;12.10;99.90;;;;;;5078717;28;20077;-82
2022/11/08 02:44:47;;;;;;;5.93;2.00;;;12.20;99.90;;;;;;5088647;28;20022;-83
2022/11/08 02:47:14;;;;;;;4.60;1.75;;;12.10;99.90;;;;;;5070463;28;20035;-82
2022/11/08 02:49:40;;;;;;;6.70;2.25;;;12.10;99.90;;;;;;5065123;28;20020;-82
2022/11/08 02:52:05;;;;;;;3.97;1.52;;;12.10;99.90;;;;;;5076817;28;20025;-84
2022/11/08 02:54:31;;;;;;;5.93;1.90;;;12.10;99.90;;;;;;5084437;28;20103;-82
2022/11/08 02:56:57;;;;;;;5.57;1.90;;;12.20;99.90;;;;;;5064271;28;20046;-83
2022/11/08 02:59:23;;;;;;;6.57;2.00;;;12.20;99.90;;;;;;5058752;28;20398;-82
2022/11/08 03:01:49;;;;;;;3.90;1.58;;;12.20;99.90;;;;;;5083532;28;20020;-83
2022/11/08 03:04:15;;;;;;;4.32;1.85;;;12.10;99.90;;;;;;5078016;28;20049;-82
2022/11/08 03:06:43;;;;;;;7.20;1.98;;;12.10;99.90;;;;;;5077431;28;20016;-80
2022/11/08 03:09:10;;;;;;;5.03;1.80;;;12.10;99.90;;;;;;5087347;28;20017;-81
2022/11/08 03:11:36;;;;;;;9.98;1.98;;;12.10;99.90;;;;;;5072939;28;20024;-83
2022/11/08 03:14:01;;;;;;;7.00;2.22;;;12.10;99.90;;;;;;5077465;28;20004;-81
2022/11/08 03:16:28;;;;;;;4.32;1.83;;;12.10;99.90;;;;;;5064286;28;20024;-82
2022/11/08 03:18:54;;;;;;;3.83;1.50;;;12.10;99.90;;;;;;5070081;28;20016;-82
2022/11/08 03:21:19;;;;;;;7.63;2.35;;;12.10;99.90;;;;;;5063469;28;20034;-82
2022/11/08 03:23:45;;;;;;;5.78;1.88;;;12.10;99.90;;;;;;5077477;28;20094;-81
2022/11/08 03:26:11;;;;;;;7.35;1.55;;;12.10;99.90;;;;;;5082247;28;20099;-82
2022/11/08 03:28:37;;;;;;;6.82;2.85;;;12.10;99.90;;;;;;5089532;28;20536;-81
2022/11/08 03:31:05;;;;;;;5.60;1.85;;;12.10;99.90;;;;;;5076224;28;20403;-81
2022/11/08 03:33:31;;;;;;;5.65;2.08;;;12.10;99.90;;;;;;5057801;28;20016;-82
2022/11/08 03:35:57;;;;;;;4.00;1.92;;;12.10;99.90;;;;;;5057621;28;20456;-81
2022/11/08 03:38:22;;;;;;;6.95;1.73;;;12.10;99.90;;;;;;5057784;28;20025;-81
2022/11/08 03:40:48;;;;;;;5.50;2.15;;;12.10;99.90;;;;;;5058829;28;20027;-81
2022/11/08 03:43:14;;;;;;;5.85;2.03;;;12.10;99.90;;;;;;5076303;28;20577;-81
2022/11/08 03:45:40;;;;;;;8.10;1.90;;;12.10;99.90;;;;;;5089179;28;20024;-81
2022/11/08 03:48:06;;;;;;;5.78;1.83;;;12.10;99.90;;;;;;5077200;28;20031;-81
2022/11/08 03:50:31;;;;;;;4.47;1.60;;;12.00;99.90;;;;;;5093841;28;20114;-81
2022/11/08 03:52:57;;;;;;;5.93;1.52;;;12.00;99.90;;;;;;5055338;28;20028;-82
2022/11/08 03:55:26;;;;;;;4.28;1.15;;;12.00;99.90;;;;;;5063157;28;20059;-81
2022/11/08 03:57:52;;;;;;;4.65;1.65;;;11.90;99.90;;;;;;5069737;28;20086;-82
2022/11/08 04:00:20;;;;;;;4.65;1.25;;;11.90;99.90;;;;;;5080981;28;20028;-81
2022/11/08 04:02:47;;;;;;;7.70;1.55;;;11.80;99.90;;;;;;5056760;28;20016;-82
2022/11/08 04:05:14;;;;;;;4.70;1.63;;;11.80;99.90;;;;;;5059178;28;20055;-82
2022/11/08 04:07:40;;;;;;;6.38;1.40;;;11.80;99.90;;;;;;5070971;28;20027;-82
2022/11/08 04:10:07;;;;;;;4.57;1.80;;;11.70;99.90;;;;;;5074601;28;20085;-81
2022/11/08 04:15:22;;;;;;;3.67;1.27;;;11.70;99.90;;;;;;5081300;28;20134;-81
2022/11/08 04:23:24;;;;;;;4.95;1.30;;;11.60;99.90;;;;;;5080895;28;20062;-82
2022/11/08 04:25:55;;;;;;;6.50;1.73;;;11.50;99.90;;;;;;5076726;28;20028;-82
2022/11/08 04:28:25;;;;;;;4.97;1.63;;;11.50;99.90;;;;;;5069367;28;20012;-81
2022/11/08 04:30:53;;;;;;;5.20;1.58;;;11.50;99.90;;;;;;5076204;28;20032;-81
2022/11/08 04:33:19;;;;;;;5.28;1.70;;;11.40;99.90;;;;;;5056506;28;20024;-82
2022/11/08 04:35:46;;;;;;;6.03;1.70;;;11.40;99.90;;;;;;5069209;28;20027;-82
2022/11/08 04:38:12;;;;;;;4.15;1.55;;;11.40;99.90;;;;;;5076177;28;20078;-81
2022/11/08 04:40:37;;;;;;;6.03;1.50;;;11.30;99.90;;;;;;5063270;28;20021;-81
2022/11/08 04:43:03;;;;;;;3.17;1.40;;;11.30;99.90;;;;;;5056927;28;20379;-81
2022/11/08 04:45:29;;;;;;;4.25;1.63;;;11.40;99.90;;;;;;5075280;28;20103;-82
2022/11/08 04:47:54;;;;;;;3.15;1.45;;;11.30;99.90;;;;;;5087047;28;20017;-82
2022/11/08 04:50:20;;;;;;;5.60;1.50;;;11.40;99.90;;;;;;5074404;28;20123;-82
2022/11/08 04:52:54;;;;;;;4.75;1.45;;;11.40;99.90;;;;;;5080522;28;20443;-82
2022/11/08 04:55:22;;;;;;;4.40;1.50;;;11.40;99.90;;;;;;5055633;28;20387;-81
2022/11/08 04:57:48;;;;;;;2.85;1.58;;;11.40;99.90;;;;;;5082739;28;20497;-82
2022/11/08 05:00:15;;;;;;;3.50;1.48;;;11.50;99.90;;;;;;5071617;28;20020;-82
2022/11/08 05:02:41;;;;;;;5.20;1.30;;;11.50;99.90;;;;;;5083163;28;20046;-82
2022/11/08 05:05:08;;;;;;;5.90;1.67;;;11.50;99.90;;;;;;5092407;28;20028;-81
2022/11/08 05:07:33;;;;;;;6.05;1.98;;;11.50;99.90;;;;;;5072958;28;20019;-82
2022/11/08 05:09:59;;;;;;;3.10;1.10;;;11.60;99.90;;;;;;5057082;28;20364;-81
2022/11/08 05:12:25;;;;;;;3.70;1.23;;;11.60;99.90;;;;;;5066734;28;20025;-82
2022/11/08 05:14:51;;;;;;;6.68;1.50;;;11.50;99.90;;;;;;5067926;28;20020;-82
2022/11/08 05:17:16;;;;;;;8.65;1.98;;;11.50;99.90;;;;;;5056582;28;20025;-81
2022/11/08 05:25:11;;;;;;;4.53;1.45;;;11.60;99.90;;;;;;5083912;28;20058;-82
2022/11/08 05:27:37;;;;;;;7.22;2.25;;;11.60;99.90;;;;;;5077274;28;20012;-81
2022/11/08 05:30:03;;;;;;;4.68;1.50;;;11.60;99.90;;;;;;5059205;28;20031;-82
2022/11/08 05:32:28;;;;;;;5.63;1.55;;;11.60;99.90;;;;;;5053934;28;20516;-82
2022/11/08 05:34:54;;;;;;;4.72;1.58;;;11.60;99.90;;;;;;5066336;28;20150;-83
2022/11/08 05:37:20;;;;;;;5.38;1.17;;;11.50;99.90;;;;;;5072759;28;20048;-83
2022/11/08 05:39:46;;;;;;;4.75;1.58;;;11.50;99.90;;;;;;5066940;28;20329;-83
2022/11/08 05:42:11;;;;;;;4.00;1.55;;;11.50;99.90;;;;;;5073657;28;20024;-83
2022/11/08 05:44:37;;;;;;;2.55;1.10;;;11.40;99.90;;;;;;5084882;28;20345;-82
2022/11/08 05:47:03;;;;;;;3.13;1.40;;;11.50;99.90;;;;;;5072230;28;20034;-83
2022/11/08 05:49:29;;;;;;;7.80;1.80;;;11.40;99.90;;;;;;5066331;28;20044;-82
2022/11/08 05:52:00;;;;;;;3.90;1.40;;;11.40;99.90;;;;;;5089317;28;20367;-82
2022/11/08 05:54:29;;;;;;;6.22;1.65;;;11.40;99.90;;;;;;5088659;28;20036;-82
2022/11/08 05:56:55;;;;;;;3.20;1.20;;;11.40;99.90;;;;;;5059286;28;20032;-83
2022/11/08 05:59:21;;;;;;;3.38;1.30;;;11.40;99.90;;;;;;5053918;28;20027;-82
2022/11/08 06:01:46;;;;;;;5.25;1.52;;;11.40;99.90;;;;;;5061205;28;20052;-82
2022/11/08 06:04:12;;;;;;;7.85;1.60;;;11.40;99.90;;;;;;5062608;28;20492;-83
2022/11/08 06:06:38;;;;;;;3.55;1.60;;;11.40;99.90;;;;;;5073622;28;20082;-82
2022/11/08 06:09:04;;;;;;;3.08;1.30;;;11.40;99.90;;;;;;5062170;28;20131;-82
2022/11/08 06:11:29;;;;;;;3.40;1.45;;;11.40;99.90;;;;;;5060831;28;20020;-85
2022/11/08 06:13:55;;;;;;;3.72;1.30;;;11.40;99.90;;;;;;5062718;28;20013;-81
2022/11/08 06:16:23;;;;;;;3.53;1.50;;;11.30;99.90;;;;;;5063412;28;20486;-83
2022/11/08 06:18:49;;;;;;;5.40;1.85;;;11.30;99.90;;;;;;5057360;28;20012;-83
2022/11/08 06:21:19;;;;;;;6.80;1.90;;;11.30;99.90;;;;;;5088309;28;20023;-82
2022/11/08 06:23:45;;;;;;;4.80;1.52;;;11.30;99.90;;;;;;5072517;28;20075;-81
2022/11/08 06:26:11;;;;;;;5.07;1.63;;;11.30;99.90;;;;;;5067876;28;20402;-82
2022/11/08 06:28:38;;;;;;;4.43;1.60;;;11.30;99.90;;;;;;5072767;28;20024;-82
2022/11/08 06:31:04;;;;;;;3.95;1.58;;;11.30;99.90;;;;;;5062944;28;20031;-81
2022/11/08 06:33:31;;;;;;;5.47;1.70;;;11.20;99.90;;;;;;5066696;28;20013;-81
2022/11/08 06:35:57;;;;;;;4.78;1.40;;;11.30;99.90;;;;;;5062104;28;20098;-81
2022/11/08 06:38:22;;;;;;;5.97;2.05;;;11.30;99.90;;;;;;5068143;28;20451;-81
2022/11/08 06:40:48;;;;;;;3.85;1.50;;;11.30;99.90;;;;;;5063472;28;20020;-83
2022/11/08 06:43:14;;;;;;;5.20;2.00;;;11.30;99.90;;;;;;5066228;28;20020;-83
2022/11/08 06:45:40;;;;;;;5.38;1.88;;;11.30;99.90;;;;;;5062138;28;20517;-82
2022/11/08 06:48:07;;;;;;;5.60;1.88;;;11.30;99.90;;;;;;5059044;28;20016;-82
2022/11/08 06:50:34;;;;;;;4.13;1.90;;;11.30;99.90;;;;;;5065020;28;20034;-83
2022/11/08 06:53:05;;;;;;;6.07;1.90;;;11.30;99.90;;;;;;5079261;28;20021;-83
2022/11/08 06:55:31;;;;;;;5.88;1.63;;;11.30;99.90;;;;;;5064395;28;20052;-83
2022/11/08 06:57:57;;;;;;;6.57;2.15;;;11.30;99.90;;;;;;5069243;28;20466;-83
2022/11/08 07:00:23;;;;;;;6.07;2.15;;;11.30;99.90;;;;;;5068940;28;20016;-82
2022/11/08 07:02:53;;;;;;;4.35;1.77;;;11.30;99.90;;;;;;5083835;28;20364;-82
2022/11/08 07:05:19;;;;;;;5.47;1.85;;;11.40;99.90;;;;;;5086020;28;20078;-82
2022/11/08 07:07:51;;;;;;;4.57;1.85;;;11.30;99.90;;;;;;5066789;28;20020;-82
2022/11/08 07:10:19;;;;;;;3.72;1.90;;;11.30;99.90;;;;;;5087358;28;20020;-81
2022/11/08 07:12:45;;;;;;;5.50;1.70;;;11.40;99.90;;;;;;5080870;28;20016;-81
2022/11/08 07:15:12;;;;;;;5.43;1.90;;;11.40;99.90;;;;;;5067419;28;20309;-82
2022/11/08 07:17:40;;;;;;;5.65;1.95;;;11.30;99.90;;;;;;5067905;28;20024;-82
2022/11/08 07:20:07;;;;;;;5.15;1.95;;;11.30;99.90;;;;;;5089120;28;20513;-82
2022/11/08 07:22:33;;;;;;;6.65;2.00;;;11.30;99.90;;;;;;5086399;28;20024;-82
2022/11/08 07:24:58;;;;;;;6.28;2.03;;;11.40;99.90;;;;;;5054132;28;20020;-83
2022/11/08 07:27:24;;;;;;;3.35;1.45;;;11.40;99.90;;;;;;5063530;28;20024;-81
2022/11/08 07:29:49;;;;;;;5.43;2.35;;;11.40;99.90;;;;;;5061665;28;20019;-82
2022/11/08 07:32:15;;;;;;;7.88;2.05;;;11.40;99.90;;;;;;5084922;28;20056;-81
2022/11/08 07:34:41;;;;;;;2.67;1.30;;;11.40;99.90;;;;;;5088755;28;20021;-83
2022/11/08 07:37:06;;;;;;;3.42;1.67;;;11.40;99.90;;;;;;5081875;28;20029;-81
2022/11/08 07:39:32;;;;;;;2.28;1.30;;;11.40;99.90;;;;;;5063491;28;20077;-81
2022/11/08 07:41:58;;;;;;;3.95;1.70;;;11.40;99.90;;;;;;5067468;28;20108;-81
2022/11/08 07:44:23;;;;;;;3.67;1.98;;;11.50;99.90;;;;;;5093849;28;20020;-81
2022/11/08 07:46:49;;;;;;;4.25;1.83;;;11.50;99.90;;;;;;5077224;28;20124;-82
2022/11/08 07:49:14;;;;;;;4.60;1.45;;;11.60;99.90;;;;;;5090625;28;20017;-82
2022/11/08 07:51:40;;;;;;;3.42;1.33;;;11.60;99.90;;;;;;5063216;28;20460;-82
2022/11/08 07:54:11;;;;;;;5.45;1.45;;;11.80;99.90;;;;;;5060889;28;20047;-83
2022/11/08 07:56:36;;;;;;;4.60;1.63;;;11.80;99.90;;;;;;5064240;28;20078;-81
2022/11/08 07:59:02;;;;;;;2.40;1.40;;;11.90;99.90;;;;;;5075063;28;20037;-82
2022/11/08 08:01:28;;;;;;;4.70;1.63;;;12.10;99.90;;;;;;5065093;28;20029;-84
2022/11/08 08:03:56;;;;;;;5.00;1.25;;;12.20;99.90;;;;;;5074832;28;20066;-83
2022/11/08 08:06:23;;;;;;;3.38;1.27;;;12.40;99.90;;;;;;5068038;28;20035;-82
2022/11/08 08:08:49;;;;;;;3.08;1.30;;;12.50;99.90;;;;;;5076379;28;20092;-83
2022/11/08 08:11:15;;;;;;;4.45;1.30;;;12.50;99.90;;;;;;5064485;28;20464;-82
2022/11/08 08:13:40;;;;;;;2.67;1.20;;;12.60;99.90;;;;;;5071087;28;20146;-82
2022/11/08 08:16:09;;;;;;;2.05;1.00;;;12.70;99.90;;;;;;5081406;28;20013;-83
2022/11/08 08:18:38;;;;;;;2.47;1.33;;;12.70;99.90;;;;;;5063325;28;20023;-85
2022/11/08 08:21:09;;;;;;;1.52;1.00;;;12.80;99.90;;;;;;5074431;28;20063;-82
2022/11/08 08:23:35;;;;;;;2.38;0.90;;;12.90;99.90;;;;;;5056980;28;20021;-82
2022/11/08 08:26:02;;;;;;;3.30;0.98;;;12.90;99.90;;;;;;5069411;28;20024;-82
2022/11/08 08:28:30;;;;;;;4.65;1.40;;;13.00;99.90;;;;;;5062830;28;20018;-82
2022/11/08 08:30:56;;;;;;;2.75;1.10;;;13.10;99.90;;;;;;5081039;28;20040;-82
2022/11/08 08:33:22;;;;;;;3.08;1.23;;;13.20;99.90;;;;;;5075398;28;20019;-82
2022/11/08 08:35:47;;;;;;;2.35;1.10;;;13.30;99.90;;;;;;5075717;28;20012;-83
2022/11/08 08:38:16;;;;;;;2.53;1.17;;;13.40;99.90;;;;;;5080156;28;20440;-83
2022/11/08 08:40:41;;;;;;;5.28;1.70;;;13.40;99.90;;;;;;5075572;28;20371;-82
2022/11/08 08:43:07;;;;;;;2.75;1.70;;;13.50;99.90;;;;;;5075668;28;20032;-82
2022/11/08 08:45:33;;;;;;;3.42;1.58;;;13.50;99.90;;;;;;5094065;28;20044;-83
2022/11/08 08:48:02;;;;;;;3.00;1.40;;;13.60;99.90;;;;;;5063056;28;20336;-83
2022/11/08 08:50:57;;;;;;;3.67;1.20;;;13.60;99.90;;;;;;5074333;28;20044;-82
2022/11/08 08:53:24;;;;;;;3.67;1.20;;;13.60;99.90;;;;;;5055347;28;20029;-82
2022/11/08 08:55:52;;;;;;;3.72;1.35;;;13.70;99.90;;;;;;5057051;28;20101;-81
2022/11/08 08:58:22;;;;;;;3.70;1.42;;;13.80;99.90;;;;;;5063997;28;20016;-82
2022/11/08 09:00:48;;;;;;;3.40;1.65;;;14.10;99.90;;;;;;5069127;28;20404;-83
2022/11/08 09:03:14;;;;;;;3.08;1.38;;;14.10;99.90;;;;;;5075401;28;20054;-82
2022/11/08 09:05:48;;;;;;;4.35;1.50;;;14.00;99.90;;;;;;5069193;28;20024;-83
2022/11/08 09:08:16;;;;;;;3.28;1.40;;;14.10;99.90;;;;;;5063648;28;20028;-83
2022/11/08 09:10:45;;;;;;;2.10;1.00;;;14.10;99.90;;;;;;5059415;28;20036;-83
2022/11/08 09:13:11;;;;;;;5.72;1.85;;;14.10;99.90;;;;;;5069263;28;20305;-82
2022/11/08 09:15:38;;;;;;;3.17;1.48;;;14.00;99.90;;;;;;5071978;28;20032;-82
2022/11/08 09:18:06;;;;;;;3.90;1.30;;;14.00;99.90;;;;;;5073599;28;20024;-82
2022/11/08 09:20:32;;;;;;;3.50;1.38;;;13.90;99.90;;;;;;5091479;28;20103;-82
2022/11/08 09:23:16;;;;;;;3.35;1.75;;;13.90;99.90;;;;;;5074102;28;20549;-82
2022/11/08 09:25:42;;;;;;;4.20;1.50;;;13.90;99.90;;;;;;5055046;28;20020;-83
2022/11/08 09:28:08;;;;;;;3.70;1.60;;;13.90;99.90;;;;;;5082113;28;20145;-82
2022/11/08 09:30:34;;;;;;;3.50;1.23;;;13.90;99.90;;;;;;5075051;28;20028;-82
2022/11/08 09:33:00;;;;;;;3.60;1.52;;;13.90;99.90;;;;;;5058384;28;20103;-83
2022/11/08 09:35:32;;;;;;;3.90;1.38;;;13.90;99.90;;;;;;5080496;28;20093;-82
2022/11/08 09:37:59;;;;;;;4.15;1.63;;;13.90;99.90;;;;;;5068257;28;20020;-82
2022/11/08 09:40:41;;;;;;;3.45;1.38;;;13.90;99.90;;;;;;5054770;28;20055;-82
2022/11/08 09:43:29;;;;;;;3.40;1.60;;;14.20;99.90;;;;;;5055729;28;20440;-82
2022/11/08 09:45:56;;;;;;;4.30;1.95;;;14.40;99.90;;;;;;5076147;28;20016;-82
2022/11/08 09:49:04;;;;;;;2.92;1.50;;;14.60;99.90;;;;;;5074580;28;20069;-82
2022/11/08 09:51:57;;;;;;;4.32;1.33;;;14.70;99.90;;;;;;5075100;28;20464;-83
2022/11/08 09:54:34;;;;;;;4.75;1.98;;;14.70;99.90;;;;;;5034521;28;20467;-82
2022/11/08 10:10:30;;;;;;;3.10;1.20;;;14.50;99.90;;;;;;5150672;27;20820;-85
2022/11/08 10:13:36;;;;;;;4.63;1.83;;;14.40;99.90;;;;;;5130903;27;20035;-85
2022/11/08 10:16:35;;;;;;;5.82;1.50;;;14.50;99.90;;;;;;5122446;28;20042;-87
2022/11/08 10:19:33;;;;;;;2.50;1.38;;;14.50;99.90;;;;;;5127021;27;20416;-85
2022/11/08 10:22:25;;;;;;;2.90;1.50;;;14.50;99.90;;;;;;5094809;27;20095;-87
2022/11/08 10:24:59;;;;;;;4.18;1.60;;;14.50;99.90;;;;;;5111366;27;20028;-87
2022/11/08 10:27:42;;;;;;;3.83;1.58;;;14.70;99.90;;;;;;5137938;27;20023;-86
2022/11/08 10:30:19;;;;;;;3.63;1.20;;;14.80;99.90;;;;;;5115127;28;20500;-86
2022/11/08 10:32:49;;;;;;;4.20;1.50;;;14.80;99.90;;;;;;5113091;27;20052;-87
2022/11/08 10:35:30;;;;;;;3.25;1.70;;;14.80;99.90;;;;;;5130366;27;20026;-88
2022/11/08 10:37:58;;;;;;;5.10;1.80;;;14.80;99.90;;;;;;5111730;28;20031;-87
2022/11/08 10:40:30;;;;;;;3.40;1.45;;;14.80;99.90;;;;;;5111539;28;20080;-87
2022/11/08 10:43:03;;;;;;;3.15;1.40;;;14.90;99.90;;;;;;5131096;27;20021;-88
2022/11/08 10:45:28;;;;;;;4.20;1.30;;;15.10;99.90;;;;;;5125029;27;20096;-86
2022/11/08 10:47:54;;;;;;;3.50;1.55;;;15.20;99.90;;;;;;5132551;27;20027;-86
2022/11/08 10:50:55;;;;;;;4.15;1.40;;;15.30;99.90;;;;;;5111349;28;20023;-87
2022/11/08 10:53:26;;;;;;;3.28;1.30;;;15.20;99.90;;;;;;5102270;28;20031;-87
2022/11/08 10:55:58;;;;;;;3.53;1.30;;;15.10;99.90;;;;;;5111422;28;20474;-88
2022/11/08 10:58:37;;;;;;;2.45;1.42;;;15.00;99.90;;;;;;5130409;27;20051;-88
2022/11/08 11:01:18;;;;;;;4.63;1.40;;;14.90;99.90;;;;;;5123662;27;20153;-86
2022/11/08 11:03:45;;;;;;;4.38;1.50;;;14.90;99.90;;;;;;5111438;28;20023;-86
2022/11/08 11:06:26;;;;;;;2.95;1.40;;;14.80;99.90;;;;;;5111348;28;20023;-88
2022/11/08 11:08:57;;;;;;;4.15;1.50;;;14.80;99.90;;;;;;5129590;27;20047;-86
2022/11/08 11:11:26;;;;;;;3.47;1.50;;;14.70;99.90;;;;;;5112210;27;20027;-87
2022/11/08 11:14:04;;;;;;;3.53;1.40;;;14.70;99.90;;;;;;5111295;28;20072;-86
2022/11/08 11:16:30;;;;;;;1.85;1.15;;;14.80;99.90;;;;;;5098755;27;20441;-86
2022/11/08 11:18:58;;;;;;;3.00;1.30;;;14.80;99.90;;;;;;5129439;27;20527;-87
2022/11/08 11:21:24;;;;;;;4.30;1.30;;;14.70;99.90;;;;;;5098641;28;20019;-87
2022/11/08 11:23:52;;;;;;;2.75;1.50;;;14.80;99.90;;;;;;5104171;27;20024;-86
2022/11/08 11:26:39;;;;;;;3.13;1.30;;;14.80;99.90;;;;;;5124722;27;20460;-87
2022/11/08 11:29:04;;;;;;;3.88;1.75;;;14.90;99.90;;;;;;5102996;27;20793;-88
2022/11/08 11:31:42;;;;;;;3.90;1.50;;;15.00;99.90;;;;;;5095495;28;20032;-88
2022/11/08 11:34:18;;;;;;;3.72;1.45;;;15.10;99.90;;;;;;5102809;27;20023;-89
2022/11/08 11:36:46;;;;;;;3.88;1.40;;;15.10;99.90;;;;;;5101286;27;20039;-88
2022/11/08 11:39:21;;;;;;;3.13;1.40;;;15.10;99.90;;;;;;5114226;27;20054;-87
2022/11/08 11:41:54;;;;;;;2.38;1.17;;;15.20;99.90;;;;;;5118719;27;20449;-87
2022/11/08 11:44:45;;;;;;;5.53;1.58;;;15.20;99.90;;;;;;5100281;28;20229;-89
2022/11/08 11:47:25;;;;;;;3.47;1.10;;;15.10;99.90;;;;;;5118956;27;20030;-87
2022/11/08 11:49:54;;;;;;;4.18;1.00;;;15.20;99.90;;;;;;5108715;27;20027;-88
2022/11/08 11:52:20;;;;;;;3.88;1.30;;;15.20;99.90;;;;;;5119716;27;20023;-89
2022/11/08 11:54:48;;;;;;;2.75;1.20;;;15.20;99.90;;;;;;5104660;28;20038;-91
2022/11/08 11:57:52;;;;;;;3.03;1.23;;;15.20;99.90;;;;;;5108450;27;20031;-90
2022/11/08 12:00:21;;;;;;;4.00;1.20;;;15.30;99.90;;;;;;5100323;27;20035;-85
2022/11/08 12:02:50;;;;;;;3.58;1.40;;;15.30;99.90;;;;;;5103770;27;20028;-82
2022/11/08 12:05:34;;;;;;;4.07;1.27;;;15.50;99.90;;;;;;5085290;27;20026;-85
2022/11/08 12:08:06;;;;;;;2.60;1.25;;;15.70;99.90;;;;;;5108273;27;20556;-88
2022/11/08 12:11:16;;;;;;;2.90;1.45;;;15.90;99.90;;;;;;5096718;27;20126;-84
2022/11/08 12:14:03;;;;;;;2.55;1.30;;;16.00;99.90;;;;;;5085514;27;20496;-83
2022/11/08 12:16:47;;;;;;;3.83;1.30;;;16.10;99.90;;;;;;5108929;27;20023;-81
2022/11/08 12:19:28;;;;;;;4.28;1.40;;;16.30;99.90;;;;;;5105116;27;20036;-84
2022/11/08 12:22:16;;;;;;;4.18;1.67;;;16.30;99.90;;;;;;5094617;27;20020;-84
2022/11/08 12:25:17;;;;;;;3.78;1.25;;;16.30;99.90;;;;;;5093935;27;20024;-82
2022/11/08 12:28:22;;;;;;;4.25;1.45;;;16.40;99.90;;;;;;5117893;27;20710;-83
2022/11/08 12:31:07;;;;;;;5.45;1.20;;;16.50;99.90;;;;;;5073951;27;20045;-82
2022/11/08 12:34:04;;;;;;;6.13;1.30;;;16.60;99.90;;;;;;5086826;27;20059;-82
2022/11/08 12:36:37;;;;;;;3.80;1.42;;;16.90;99.90;;;;;;5118221;27;20035;-84
2022/11/08 12:39:35;;;;;;;3.70;1.50;;;16.90;99.90;;;;;;5123728;27;20036;-84
2022/11/08 12:42:15;;;;;;;2.80;1.15;;;16.80;99.90;;;;;;5122345;27;20054;-84
2022/11/08 12:44:57;;;;;;;3.72;1.27;;;16.50;99.90;;;;;;5086843;28;20023;-82
2022/11/08 12:47:44;;;;;;;2.88;1.17;;;16.40;99.90;;;;;;5121291;27;20020;-83
2022/11/08 12:50:56;;;;;;;4.18;1.80;;;16.20;99.90;;;;;;5122436;27;20072;-82
2022/11/08 12:53:42;;;;;;;3.22;1.48;;;16.00;99.90;;;;;;5017851;28;20041;-84
2022/11/08 12:56:34;;;;;;;3.05;1.40;;;15.90;99.90;;;;;;5102741;27;20023;-83
2022/11/08 12:59:01;;;;;;;5.32;1.75;;;15.80;99.90;;;;;;5112929;27;20093;-82
2022/11/08 13:01:26;;;;;;;4.40;1.60;;;15.70;99.90;;;;;;5098254;27;20019;-83
2022/11/08 13:04:17;;;;;;;3.03;1.42;;;15.70;99.90;;;;;;5097529;28;20031;-82
2022/11/08 13:07:05;;;;;;;3.55;1.77;;;15.70;99.90;;;;;;5069518;28;20043;-82
2022/11/08 13:09:46;;;;;;;3.55;1.20;;;15.70;99.90;;;;;;5099648;27;20095;-83
2022/11/08 13:12:43;;;;;;;3.45;1.13;;;15.60;99.90;;;;;;5113667;27;20034;-82
2022/11/08 13:15:18;;;;;;;3.67;1.80;;;15.60;99.90;;;;;;5117047;27;20019;-82
2022/11/08 13:18:06;;;;;;;7.25;1.73;;;15.70;99.90;;;;;;5112837;27;20168;-84
2022/11/08 13:20:41;;;;;;;3.97;1.40;;;15.70;99.90;;;;;;5090038;27;20050;-82
2022/11/08 13:23:19;;;;;;;4.50;1.38;;;15.70;99.90;;;;;;5119564;27;20042;-83
2022/11/08 13:25:46;;;;;;;4.47;1.48;;;15.80;99.90;;;;;;5101286;27;20011;-82
2022/11/08 13:28:34;;;;;;;5.32;1.48;;;15.80;99.90;;;;;;5114214;27;20067;-82
2022/11/08 13:31:22;;;;;;;3.97;1.20;;;15.90;99.90;;;;;;5096560;28;20512;-84
2022/11/08 13:34:19;;;;;;;3.60;1.13;;;15.90;99.90;;;;;;5065667;27;20023;-82
2022/11/08 13:37:12;;;;;;;5.97;1.30;;;15.90;99.90;;;;;;5084726;28;20081;-83
2022/11/08 13:39:41;;;;;;;3.17;1.10;;;15.90;99.90;;;;;;5098898;28;20091;-82
2022/11/08 13:42:15;;;;;;;2.88;1.30;;;15.90;99.90;;;;;;5097494;28;20027;-82
2022/11/08 13:44:53;;;;;;;2.97;1.13;;;15.90;99.90;;;;;;5096834;27;20488;-82